Time;durP1;ratioP1;P1;durP2;ratioP2;P2;SDS_P1;SDS_P2;PMS_P1;PMS_P2;Temp;Humidity;BMP_temperature;BMP_pressure;BME280_temperature;BME280_humidity;BME280_pressure;Samples;Min_cycle;Max_cycle;Signal;HPM_P1;HPM_P2
2023/01/10 00:02:13;;;;;;;;;4.25;2.25;;;;;7.04;63.16;101413.72;5018963;28;45531;-52
2023/01/10 00:04:38;;;;;;;;;3.00;2.50;;;;;7.01;63.38;101401.50;5020329;28;45344;-53
2023/01/10 00:07:04;;;;;;;;;8.00;4.00;;;;;6.99;63.47;101411.94;5019164;28;45373;-51
2023/01/10 00:09:29;;;;;;;;;6.00;3.50;;;;;6.98;63.47;101407.56;5020259;28;45355;-51
2023/01/10 00:14:39;;;;;;;;;3.75;2.50;;;;;7.00;63.40;101423.25;5020369;28;45302;-52
2023/01/10 00:17:04;;;;;;;;;8.00;3.75;;;;;7.02;63.37;101420.66;5019600;28;46178;-52
2023/01/10 00:19:30;;;;;;;;;3.25;3.25;;;;;6.96;63.61;101418.88;5020422;28;45227;-52
2023/01/10 00:22:08;;;;;;;;;4.50;3.00;;;;;6.99;63.48;101429.34;5020165;28;45515;-53
2023/01/10 00:24:34;;;;;;;;;6.75;3.75;;;;;6.97;63.60;101437.19;5020190;28;45304;-52
2023/01/10 00:27:01;;;;;;;;;3.00;2.00;;;;;6.97;63.59;101441.53;5018635;28;46331;-53
2023/01/10 00:29:30;;;;;;;;;5.00;3.25;;;;;6.98;63.43;101445.88;5020002;28;45155;-53
2023/01/10 00:31:56;;;;;;;;;5.50;3.00;;;;;6.98;63.50;101445.88;5019767;28;45420;-53
2023/01/10 00:34:22;;;;;;;;;3.75;2.25;;;;;6.96;63.49;101451.09;5019814;28;45422;-49
2023/01/10 00:36:47;;;;;;;;;3.00;2.25;;;;;6.96;63.54;101456.31;5019870;28;46099;-54
2023/01/10 00:39:14;;;;;;;;;2.00;2.00;;;;;6.96;63.56;101458.94;5019730;28;45346;-50
2023/01/10 00:44:25;;;;;;;;;3.00;3.00;;;;;6.91;63.47;101475.44;5019705;28;45408;-53
2023/01/10 00:46:50;;;;;;;;;3.00;2.00;;;;;6.90;63.62;101465.84;5019560;28;46165;-53
2023/01/10 00:49:16;;;;;;;;;6.25;5.75;;;;;6.88;63.49;101465.81;5019621;28;45327;-53
2023/01/10 00:51:42;;;;;;;;;8.50;3.00;;;;;6.89;63.53;101471.91;5019753;28;45409;-53
2023/01/10 00:54:09;;;;;;;;;4.00;2.75;;;;;6.89;63.45;101474.53;5019653;28;45419;-50
2023/01/10 00:56:34;;;;;;;;;3.75;3.75;;;;;6.90;63.41;101481.50;5019275;28;45273;-52
2023/01/10 00:58:59;;;;;;;;;5.75;3.00;;;;;6.86;63.54;101479.72;5019437;28;45292;-53
2023/01/10 01:01:25;;;;;;;;;9.25;3.50;;;;;6.89;63.59;101488.44;5019638;28;45276;-54
2023/01/10 01:03:50;;;;;;;;;3.50;3.00;;;;;6.89;63.37;101484.97;5019770;28;45465;-53
2023/01/10 01:06:15;;;;;;;;;4.00;3.50;;;;;6.89;63.51;101483.22;5019520;28;46033;-51
2023/01/10 01:08:41;;;;;;;;;9.50;6.00;;;;;6.90;63.45;101494.56;5018234;28;45237;-53
2023/01/10 01:11:06;;;;;;;;;10.00;5.00;;;;;6.88;63.40;101485.81;5018251;28;45372;-54
2023/01/10 01:13:31;;;;;;;;;10.50;6.25;;;;;6.92;63.28;101490.25;5018349;28;45219;-54
2023/01/10 01:15:58;;;;;;;;;4.00;2.75;;;;;6.92;63.36;101488.50;5019222;28;45940;-51
2023/01/10 01:18:24;;;;;;;;;5.75;5.00;;;;;6.93;63.34;101492.00;5019252;28;45371;-51
2023/01/10 01:20:56;;;;;;;;;3.25;2.50;;;;;6.92;63.43;101506.81;5019137;28;45412;-51
2023/01/10 01:23:23;;;;;;;;;5.50;4.25;;;;;6.93;63.28;101507.66;5019293;28;45364;-50
2023/01/10 01:25:50;;;;;;;;;7.25;5.00;;;;;6.92;63.23;101511.16;5019034;28;45779;-51
2023/01/10 01:28:15;;;;;;;;;4.00;2.75;;;;;6.91;63.43;101507.66;5017517;28;45818;-53
2023/01/10 01:30:41;;;;;;;;;7.50;3.75;;;;;6.92;63.28;101505.94;5018951;28;45242;-52
2023/01/10 01:33:06;;;;;;;;;9.00;4.00;;;;;6.93;63.45;101512.88;5019041;28;45331;-53
2023/01/10 01:35:32;;;;;;;;;4.50;3.50;;;;;6.89;63.21;101511.09;5019255;28;45416;-53
2023/01/10 01:37:58;;;;;;;;;7.75;4.75;;;;;6.88;63.78;101515.47;5019113;28;45226;-55
2023/01/10 01:40:23;;;;;;;;;8.50;5.75;;;;;6.87;63.49;101524.16;5023008;28;45286;-52
2023/01/10 01:42:54;;;;;;;;;8.00;3.75;;;;;6.87;63.34;101520.66;5022401;28;45302;-53
2023/01/10 01:45:34;;;;;;;;;4.00;4.00;;;;;6.78;63.53;101519.69;5022181;28;47123;-53
2023/01/10 01:48:27;;;;;;;;;9.00;4.25;;;;;6.79;63.39;101520.53;5022437;28;45481;-52
2023/01/10 01:51:11;;;;;;;;;5.50;4.25;;;;;6.78;64.07;101534.47;5022403;28;45243;-54
2023/01/10 01:53:45;;;;;;;;;8.00;4.50;;;;;6.76;63.47;101536.19;5022581;28;45439;-52
2023/01/10 01:56:23;;;;;;;;;5.00;4.75;;;;;6.74;63.47;101538.78;5022318;28;45360;-54
2023/01/10 01:59:00;;;;;;;;;4.00;3.00;;;;;6.74;63.67;101544.03;5022321;28;45218;-53
2023/01/10 02:01:27;;;;;;;;;3.50;3.50;;;;;6.74;63.34;101541.41;5022206;28;46429;-50
2023/01/10 02:04:00;;;;;;;;;8.00;2.75;;;;;6.75;63.47;101540.53;5022375;28;45539;-52
2023/01/10 02:06:25;;;;;;;;;4.75;3.50;;;;;6.75;63.53;101539.66;5022285;28;45531;-52
2023/01/10 02:09:07;;;;;;;;;6.25;4.00;;;;;6.74;63.53;101545.72;5021984;28;45393;-54
2023/01/10 02:11:32;;;;;;;;;4.75;2.50;;;;;6.71;63.57;101535.25;5022220;28;45250;-53
2023/01/10 02:13:59;;;;;;;;;3.25;2.25;;;;;6.67;63.62;101536.94;5022089;28;45226;-52
2023/01/10 02:16:24;;;;;;;;;2.00;2.00;;;;;6.66;63.70;101540.41;5021837;28;45467;-54
2023/01/10 02:18:49;;;;;;;;;6.25;4.50;;;;;6.69;63.41;101550.88;5021962;28;45274;-51
2023/01/10 02:21:32;;;;;;;;;4.00;3.50;;;;;6.67;63.75;101557.84;5022074;28;45671;-53
2023/01/10 02:24:16;;;;;;;;;4.75;3.00;;;;;6.65;63.74;101565.66;5022065;28;45484;-53
2023/01/10 02:26:56;;;;;;;;;4.75;2.50;;;;;6.63;64.00;101569.97;5021166;28;45285;-51
2023/01/10 02:30:02;;;;;;;;;3.00;3.00;;;;;6.59;63.81;101572.50;5021703;28;45387;-51
2023/01/10 02:32:39;;;;;;;;;4.00;3.00;;;;;6.55;63.88;101573.31;5020425;28;45570;-53
2023/01/10 02:35:17;;;;;;;;;2.75;1.75;;;;;6.55;63.86;101570.69;5021857;28;45249;-52
2023/01/10 02:38:03;;;;;;;;;3.25;2.75;;;;;6.49;63.94;101585.41;5021559;28;46158;-53
2023/01/10 02:40:46;;;;;;;;;2.50;2.00;;;;;6.48;63.96;101583.66;5020258;28;45202;-51
2023/01/10 02:43:17;;;;;;;;;7.25;2.25;;;;;6.46;64.12;101580.13;5021432;28;45412;-54
2023/01/10 02:45:56;;;;;;;;;11.00;3.75;;;;;6.45;64.22;101580.13;5021415;28;45422;-52
2023/01/10 02:48:21;;;;;;;;;10.25;4.00;;;;;6.42;64.31;101586.16;5020238;28;45341;-53
2023/01/10 02:50:55;;;;;;;;;5.50;3.00;;;;;6.41;64.40;101591.38;5020291;28;45290;-52
2023/01/10 02:53:35;;;;;;;;;4.50;2.00;;;;;6.38;64.38;101596.53;5021621;28;45440;-51
2023/01/10 02:56:34;;;;;;;;;8.00;3.00;;;;;6.37;64.30;101600.00;5021399;28;45167;-53
2023/01/10 02:59:36;;;;;;;;;4.00;3.00;;;;;6.36;64.31;101612.16;5021287;28;45383;-51
2023/01/10 03:02:17;;;;;;;;;7.00;3.75;;;;;6.31;64.41;101617.34;5021004;28;45299;-51
2023/01/10 03:05:26;;;;;;;;;3.75;3.00;;;;;6.30;64.43;101618.19;5021522;28;45301;-51
2023/01/10 03:07:55;;;;;;;;;3.50;1.75;;;;;6.29;64.55;101618.13;5021221;28;45253;-53
2023/01/10 03:10:41;;;;;;;;;3.75;2.75;;;;;6.30;64.47;101609.44;5020918;28;46335;-50
2023/01/10 03:13:18;;;;;;;;;3.00;3.00;;;;;6.27;64.36;101601.59;5019810;28;45250;-52
2023/01/10 03:15:46;;;;;;;;;7.00;4.00;;;;;6.24;64.40;101591.97;5021127;28;45308;-53
2023/01/10 03:18:19;;;;;;;;;2.75;2.00;;;;;6.25;64.61;101600.66;5019660;28;45410;-51
2023/01/10 03:20:46;;;;;;;;;4.00;2.50;;;;;6.25;64.62;101590.22;5003248;28;48233;-53
2023/01/10 03:23:14;;;;;;;;;4.50;4.00;;;;;6.26;64.59;101600.69;5020989;28;45351;-53
2023/01/10 03:25:42;;;;;;;;;3.50;2.00;;;;;6.25;64.45;101603.28;5021123;28;45301;-54
2023/01/10 03:28:14;;;;;;;;;2.75;2.00;;;;;6.24;64.67;101601.50;5020802;28;45233;-52
2023/01/10 03:30:45;;;;;;;;;4.50;3.00;;;;;6.25;64.72;101605.88;5020623;28;46132;-50
2023/01/10 03:33:17;;;;;;;;;6.25;2.00;;;;;6.25;64.59;101598.94;5020732;28;45427;-53
2023/01/10 03:36:03;;;;;;;;;1.00;0.00;;;;;6.25;64.70;101592.84;5021053;28;45314;-53
2023/01/10 03:38:45;;;;;;;;;2.50;1.75;;;;;6.27;64.71;101612.03;5020954;28;45263;-53
2023/01/10 03:41:46;;;;;;;;;5.50;3.00;;;;;6.28;64.54;101619.00;5020319;28;45372;-49
2023/01/10 03:47:12;;;;;;;;;5.25;3.00;;;;;6.24;64.75;101628.50;5020688;28;45277;-50
2023/01/10 03:49:41;;;;;;;;;5.00;5.00;;;;;6.24;64.61;101638.97;5019217;28;45282;-50
2023/01/10 03:52:10;;;;;;;;;9.00;3.25;;;;;6.26;64.72;101628.53;5020349;28;46235;-51
2023/01/10 03:54:36;;;;;;;;;4.50;3.00;;;;;6.31;64.77;101650.38;5020561;28;45309;-52
2023/01/10 03:57:01;;;;;;;;;7.50;4.00;;;;;6.29;64.58;101646.84;5020430;28;45383;-52
2023/01/10 03:59:28;;;;;;;;;8.50;4.75;;;;;6.29;64.69;101650.34;5020875;28;45396;-52
2023/01/10 04:01:54;;;;;;;;;3.75;3.75;;;;;6.29;64.87;101642.53;5018587;28;47121;-52
2023/01/10 04:04:20;;;;;;;;;7.00;4.75;;;;;6.29;64.77;101642.53;5020461;28;45265;-52
2023/01/10 04:06:45;;;;;;;;;8.75;4.50;;;;;6.29;64.78;101654.69;5020566;28;45230;-53
2023/01/10 04:09:11;;;;;;;;;1.50;1.50;;;;;6.25;64.95;101663.31;5020396;28;45187;-53
2023/01/10 04:11:36;;;;;;;;;5.75;3.00;;;;;6.26;65.05;101646.81;5020170;28;45339;-53
2023/01/10 04:14:02;;;;;;;;;9.75;3.00;;;;;6.25;64.74;101640.72;5020383;28;45368;-50
2023/01/10 04:16:27;;;;;;;;;7.00;3.00;;;;;6.26;64.80;101644.19;5020077;28;45388;-53
2023/01/10 04:18:53;;;;;;;;;2.00;2.00;;;;;6.26;65.01;101644.19;5019078;28;45253;-52
2023/01/10 04:21:18;;;;;;;;;7.00;3.50;;;;;6.22;65.06;101638.03;5019832;28;45358;-51
2023/01/10 04:23:43;;;;;;;;;4.50;1.75;;;;;6.21;65.13;101640.63;5019904;28;45289;-50
2023/01/10 04:26:09;;;;;;;;;8.00;4.00;;;;;6.26;64.92;101639.84;5020138;28;45339;-54
2023/01/10 04:28:34;;;;;;;;;7.75;7.00;;;;;6.25;64.83;101632.88;5020152;28;45369;-52
2023/01/10 04:31:00;;;;;;;;;8.50;5.50;;;;;6.25;64.92;101643.34;5019728;28;46557;-52
2023/01/10 04:33:27;;;;;;;;;5.50;4.25;;;;;6.28;65.04;101645.13;5020254;28;45462;-53
2023/01/10 04:35:52;;;;;;;;;7.75;4.50;;;;;6.30;64.82;101635.56;5020084;28;45502;-53
2023/01/10 04:38:18;;;;;;;;;4.25;3.00;;;;;6.30;65.04;101641.69;5019953;28;45193;-52
2023/01/10 04:40:43;;;;;;;;;10.00;6.00;;;;;6.37;65.00;101642.66;5019749;28;45709;-53
2023/01/10 04:43:10;;;;;;;;;5.00;3.75;;;;;6.38;65.02;101643.53;5017837;28;45365;-52
2023/01/10 04:45:36;;;;;;;;;4.25;3.00;;;;;6.37;65.01;101642.66;5019907;28;45229;-51
2023/01/10 04:48:01;;;;;;;;;5.25;3.75;;;;;6.33;65.26;101640.84;5019955;28;45229;-51
2023/01/10 04:50:27;;;;;;;;;3.75;3.50;;;;;6.37;64.97;101632.22;5019668;28;46070;-50
2023/01/10 04:52:52;;;;;;;;;7.75;6.50;;;;;6.37;65.10;101641.78;5019868;28;45494;-53
2023/01/10 04:55:17;;;;;;;;;2.75;2.75;;;;;6.39;65.16;101640.97;5019867;28;45356;-49
2023/01/10 04:57:43;;;;;;;;;4.25;4.25;;;;;6.40;65.15;101640.13;5018397;28;45495;-52
2023/01/10 05:00:10;;;;;;;;;4.50;3.00;;;;;6.42;65.10;101633.16;5019428;28;45409;-53
2023/01/10 05:02:42;;;;;;;;;3.25;3.25;;;;;6.42;64.99;101641.00;5019629;28;45285;-53
2023/01/10 05:05:09;;;;;;;;;4.75;3.50;;;;;6.43;65.01;101645.38;5019587;28;45419;-53
2023/01/10 05:07:34;;;;;;;;;2.25;2.25;;;;;6.44;64.98;101654.06;5018268;28;45492;-53
2023/01/10 05:09:59;;;;;;;;;3.00;3.00;;;;;6.44;65.03;101644.53;5017938;28;47316;-53
2023/01/10 05:12:25;;;;;;;;;3.50;2.75;;;;;6.40;65.25;101652.28;5019517;28;45360;-51
2023/01/10 05:14:50;;;;;;;;;2.50;2.50;;;;;6.39;65.14;101654.03;5022354;28;45306;-49
2023/01/10 05:17:15;;;;;;;;;3.25;3.00;;;;;6.41;65.14;101648.81;5022827;28;45448;-50
2023/01/10 05:19:40;;;;;;;;;7.00;4.00;;;;;6.42;65.44;101654.06;5022750;28;45309;-53
2023/01/10 05:22:06;;;;;;;;;8.00;5.00;;;;;6.38;65.30;101654.88;5023048;28;45317;-53
2023/01/10 05:24:31;;;;;;;;;3.25;3.25;;;;;6.37;65.29;101653.09;5023155;28;45375;-53
2023/01/10 05:26:56;;;;;;;;;5.50;3.00;;;;;6.33;65.44;101656.50;5021607;28;45413;-51
2023/01/10 05:29:22;;;;;;;;;4.00;2.25;;;;;6.34;65.51;101647.84;5023031;28;45400;-53
2023/01/10 05:31:50;;;;;;;;;5.00;3.25;;;;;6.37;65.57;101645.25;5022577;28;45142;-51
2023/01/10 05:34:15;;;;;;;;;3.75;1.75;;;;;6.33;65.41;101638.25;5022966;28;45228;-51
2023/01/10 05:36:40;;;;;;;;;7.50;3.50;;;;;6.32;65.25;101644.31;5022868;28;45299;-50
2023/01/10 05:39:06;;;;;;;;;4.50;3.25;;;;;6.29;65.49;101650.34;5022657;28;45656;-53
2023/01/10 05:41:31;;;;;;;;;3.50;3.00;;;;;6.28;65.58;101638.16;5022423;28;45332;-52
2023/01/10 05:43:56;;;;;;;;;3.00;3.00;;;;;6.26;65.62;101639.84;5023032;28;45284;-51
2023/01/10 05:46:22;;;;;;;;;4.75;3.50;;;;;6.30;65.32;101640.78;5022558;28;45581;-53
2023/01/10 05:48:47;;;;;;;;;5.00;4.00;;;;;6.32;65.46;101639.09;5022569;28;45361;-54
2023/01/10 05:51:12;;;;;;;;;10.50;7.00;;;;;6.31;65.26;101640.84;5022363;28;45416;-53
2023/01/10 05:53:38;;;;;;;;;5.00;3.00;;;;;6.36;65.31;101640.03;5022729;28;45264;-54
2023/01/10 05:56:03;;;;;;;;;1.50;1.50;;;;;6.36;65.49;101629.59;5022220;28;45540;-51
2023/01/10 05:58:29;;;;;;;;;4.25;3.25;;;;;6.39;65.43;101630.53;5022503;28;47092;-58
2023/01/10 06:00:56;;;;;;;;;3.00;3.00;;;;;6.39;65.32;101627.91;5021875;28;45296;-54
2023/01/10 06:03:22;;;;;;;;;5.25;2.25;;;;;6.43;65.66;101618.41;5016005;28;45362;-54
2023/01/10 06:05:47;;;;;;;;;5.00;2.25;;;;;6.47;65.43;101623.69;5007638;28;45314;-54
2023/01/10 06:08:13;;;;;;;;;2.75;2.25;;;;;6.45;65.44;101620.19;5021838;28;45225;-54
2023/01/10 06:10:38;;;;;;;;;3.50;2.75;;;;;6.44;65.65;101628.88;5021852;28;45428;-54
2023/01/10 06:13:08;;;;;;;;;5.00;4.00;;;;;6.46;65.62;101626.28;5017143;28;45507;-54
2023/01/10 06:15:35;;;;;;;;;5.25;3.75;;;;;6.48;65.63;101628.06;5021264;28;45459;-54
2023/01/10 06:18:00;;;;;;;;;6.75;4.00;;;;;6.44;65.52;101633.19;5021358;28;46399;-51
2023/01/10 06:20:25;;;;;;;;;5.25;3.50;;;;;6.45;65.55;101637.56;5016666;28;45294;-53
2023/01/10 06:22:51;;;;;;;;;4.75;4.25;;;;;6.48;65.40;101645.47;5017380;28;45310;-50
2023/01/10 06:25:16;;;;;;;;;3.50;2.75;;;;;6.52;65.47;101643.78;5019708;28;45602;-51
2023/01/10 06:27:43;;;;;;;;;3.50;2.25;;;;;6.52;65.63;101636.81;5021766;28;45283;-55
2023/01/10 06:30:10;;;;;;;;;4.75;3.75;;;;;6.47;65.69;101636.72;5020951;28;45266;-52
2023/01/10 06:32:36;;;;;;;;;3.75;2.75;;;;;6.48;65.75;101640.25;5021580;28;45336;-51
2023/01/10 06:35:01;;;;;;;;;3.25;3.00;;;;;6.55;65.59;101636.84;5021487;28;45403;-50
2023/01/10 06:37:27;;;;;;;;;9.00;4.75;;;;;6.55;65.57;101649.91;5019468;28;46073;-53
2023/01/10 06:39:52;;;;;;;;;6.25;2.25;;;;;6.55;65.56;101641.22;5019710;28;45370;-53
2023/01/10 06:42:17;;;;;;;;;2.00;1.00;;;;;6.52;65.49;101647.25;5020805;28;45558;-50
2023/01/10 06:44:42;;;;;;;;;2.75;2.50;;;;;6.55;65.69;101664.72;5021053;28;45520;-54
2023/01/10 06:47:08;;;;;;;;;4.50;3.25;;;;;6.59;65.54;101656.97;5019988;28;45257;-51
2023/01/10 06:49:33;;;;;;;;;3.25;2.25;;;;;6.54;65.70;101652.50;5020389;28;45732;-53
2023/01/10 06:51:58;;;;;;;;;3.50;2.50;;;;;6.51;65.57;101655.94;4988371;28;45507;-55
2023/01/10 06:54:24;;;;;;;;;4.25;2.00;;;;;6.50;65.70;101654.19;5019380;28;45479;-51
2023/01/10 06:56:49;;;;;;;;;6.25;4.00;;;;;6.46;65.93;101650.63;5019524;28;46302;-51
2023/01/10 06:59:15;;;;;;;;;5.00;2.00;;;;;6.50;65.50;101652.47;5020571;28;45298;-50
2023/01/10 07:01:40;;;;;;;;;5.00;3.00;;;;;6.49;65.50;101658.53;4989496;28;45388;-53
2023/01/10 07:04:06;;;;;;;;;6.50;3.00;;;;;6.44;65.79;101649.75;5001167;28;45496;-52
2023/01/10 07:06:36;;;;;;;;;4.00;3.50;;;;;6.43;65.73;101645.38;4985322;28;45302;-55
2023/01/10 07:09:01;;;;;;;;;4.25;4.00;;;;;6.43;65.81;101639.28;4987514;28;45389;-51
2023/01/10 07:11:26;;;;;;;;;3.25;2.75;;;;;6.52;65.68;101646.41;4990203;28;45249;-53
2023/01/10 07:13:52;;;;;;;;;13.50;11.00;;;;;6.50;65.59;101649.84;5000391;28;45257;-52
2023/01/10 07:16:18;;;;;;;;;3.00;2.50;;;;;6.49;65.60;101660.25;4980543;28;47458;-53
2023/01/10 07:18:43;;;;;;;;;8.50;6.00;;;;;6.51;65.71;101650.72;5001074;28;45320;-53
2023/01/10 07:21:09;;;;;;;;;4.00;3.25;;;;;6.44;65.77;101635.78;5001192;28;45545;-53
2023/01/10 07:23:35;;;;;;;;;6.75;5.00;;;;;6.46;65.96;101642.81;5001478;28;45452;-52
2023/01/10 07:26:07;;;;;;;;;6.50;4.00;;;;;6.45;65.72;101633.22;5000910;28;46052;-53
2023/01/10 07:28:35;;;;;;;;;6.75;3.50;;;;;6.45;65.88;101646.28;5001068;28;45374;-52
2023/01/10 07:31:02;;;;;;;;;4.00;3.75;;;;;6.40;65.72;101632.28;5000857;28;45335;-54
2023/01/10 07:33:28;;;;;;;;;6.00;2.50;;;;;6.38;65.73;101633.06;4982889;28;45368;-53
2023/01/10 07:35:54;;;;;;;;;4.75;4.25;;;;;6.33;65.89;101636.50;5000289;28;46676;-52
2023/01/10 07:38:19;;;;;;;;;4.25;3.75;;;;;6.36;65.80;101640.03;5001003;28;45386;-52
2023/01/10 07:40:44;;;;;;;;;5.50;2.25;;;;;6.32;65.86;101629.50;4983465;28;45259;-51
2023/01/10 07:43:10;;;;;;;;;4.75;2.50;;;;;6.43;65.88;101645.38;5018383;28;45234;-53
2023/01/10 07:45:35;;;;;;;;;6.50;5.75;;;;;6.34;66.06;101632.16;5019042;28;47499;-51
2023/01/10 07:48:03;;;;;;;;;8.50;6.00;;;;;6.36;65.91;101630.44;5020828;28;45217;-50
2023/01/10 07:50:32;;;;;;;;;3.75;3.00;;;;;6.33;65.80;101631.28;5020640;28;45520;-52
2023/01/10 07:52:58;;;;;;;;;7.50;5.00;;;;;6.25;65.76;101629.38;5020582;28;45538;-52
2023/01/10 07:55:24;;;;;;;;;6.25;4.00;;;;;6.34;66.06;101634.78;5020436;28;46168;-52
2023/01/10 07:57:50;;;;;;;;;11.00;8.25;;;;;6.27;65.98;101630.28;5020337;28;45237;-52
2023/01/10 08:00:17;;;;;;;;;7.00;5.00;;;;;6.28;65.98;101629.44;5020357;28;45335;-52
2023/01/10 08:02:42;;;;;;;;;7.25;4.50;;;;;6.30;66.33;101627.72;5020463;28;45341;-56
2023/01/10 08:05:08;;;;;;;;;6.00;5.00;;;;;6.31;65.94;101642.53;5019994;28;45263;-53
2023/01/10 08:07:34;;;;;;;;;11.75;5.00;;;;;6.31;65.92;101635.59;5020264;28;45443;-53
2023/01/10 08:09:59;;;;;;;;;5.50;5.00;;;;;6.25;66.37;101635.50;5035847;28;45395;-54
2023/01/10 08:12:25;;;;;;;;;4.00;4.00;;;;;6.28;66.08;101640.75;5020094;28;45316;-52
2023/01/10 08:14:50;;;;;;;;;4.75;3.50;;;;;6.31;66.10;101632.09;5020154;28;46290;-51
2023/01/10 08:17:16;;;;;;;;;3.25;3.25;;;;;6.34;66.08;101635.66;5018613;28;45858;-53
2023/01/10 08:19:42;;;;;;;;;3.75;3.75;;;;;6.33;66.12;101641.72;5020041;28;45309;-53
2023/01/10 08:22:08;;;;;;;;;8.75;4.25;;;;;6.32;66.17;101649.53;5020064;28;45324;-53
2023/01/10 08:24:33;;;;;;;;;7.75;7.25;;;;;6.35;66.40;101652.19;5020097;28;45423;-54
2023/01/10 08:26:58;;;;;;;;;8.25;4.75;;;;;6.37;66.18;101657.44;5018767;28;45301;-53
2023/01/10 08:29:24;;;;;;;;;5.75;3.75;;;;;6.41;66.28;101652.28;5018743;28;45246;-54
2023/01/10 08:31:49;;;;;;;;;7.25;5.75;;;;;6.43;66.18;101655.81;5019873;28;45247;-53
2023/01/10 08:34:15;;;;;;;;;10.25;4.50;;;;;6.44;66.13;101654.97;5020083;28;46909;-53
2023/01/10 08:36:41;;;;;;;;;4.25;4.25;;;;;6.47;66.23;101657.63;5019993;28;45175;-51
2023/01/10 08:39:07;;;;;;;;;8.50;5.00;;;;;6.44;66.37;101639.31;5020031;28;45250;-51
2023/01/10 08:41:32;;;;;;;;;8.25;3.75;;;;;6.46;66.30;101640.19;5019637;28;45368;-52
2023/01/10 08:43:58;;;;;;;;;5.50;4.25;;;;;6.45;66.45;101646.28;5019766;28;45238;-53
2023/01/10 08:46:23;;;;;;;;;10.00;4.75;;;;;6.47;66.53;101638.47;5019697;28;45313;-53
2023/01/10 08:48:49;;;;;;;;;8.50;6.75;;;;;6.52;66.29;101630.72;5021143;28;45466;-52
2023/01/10 08:51:15;;;;;;;;;7.50;5.00;;;;;6.50;66.35;101634.19;5023453;28;45521;-52
2023/01/10 08:53:41;;;;;;;;;4.75;3.50;;;;;6.53;66.41;101627.25;5022042;28;47049;-52
2023/01/10 08:56:07;;;;;;;;;7.00;4.75;;;;;6.58;66.32;101629.09;5023468;28;45329;-50
2023/01/10 08:58:33;;;;;;;;;12.75;6.00;;;;;6.59;66.46;101628.25;5023308;28;45285;-52
2023/01/10 09:01:02;;;;;;;;;3.50;2.75;;;;;6.60;66.38;101637.84;5022832;28;45408;-53
2023/01/10 09:03:28;;;;;;;;;9.25;5.00;;;;;6.63;66.31;101637.88;5021576;28;47067;-51
2023/01/10 09:05:53;;;;;;;;;11.00;4.00;;;;;6.69;66.31;101642.31;5023182;28;45325;-51
2023/01/10 09:08:18;;;;;;;;;9.25;4.00;;;;;6.70;66.37;101638.84;5023289;28;45326;-52
2023/01/10 09:10:44;;;;;;;;;6.00;4.00;;;;;6.74;66.43;101640.69;5023085;28;45372;-53
2023/01/10 09:13:09;;;;;;;;;4.00;4.00;;;;;6.74;66.50;101638.06;5022993;28;45479;-53
2023/01/10 09:15:37;;;;;;;;;8.75;6.25;;;;;6.76;66.39;101638.94;5022913;28;45343;-55
2023/01/10 09:18:05;;;;;;;;;5.50;5.00;;;;;6.85;66.61;101637.34;5023207;28;45241;-52
2023/01/10 09:20:32;;;;;;;;;11.00;6.50;;;;;6.83;66.39;101625.13;5022894;28;45459;-53
2023/01/10 09:22:58;;;;;;;;;9.50;6.50;;;;;6.88;66.55;101634.75;5021427;28;48343;-52
2023/01/10 09:25:24;;;;;;;;;11.00;8.75;;;;;6.88;66.63;101625.22;5022766;28;45380;-53
2023/01/10 09:27:57;;;;;;;;;9.50;9.00;;;;;6.83;66.73;101626.88;5022690;28;45379;-53
2023/01/10 09:30:23;;;;;;;;;10.00;6.50;;;;;6.92;66.68;101623.53;5022388;28;45478;-53
2023/01/10 09:32:50;;;;;;;;;6.25;5.50;;;;;6.94;66.82;101625.31;5022629;28;46514;-51
2023/01/10 09:35:16;;;;;;;;;7.50;7.50;;;;;6.98;66.86;101615.75;5021459;28;45329;-52
2023/01/10 09:37:41;;;;;;;;;8.50;4.25;;;;;6.98;66.90;101616.66;5022816;28;45322;-54
2023/01/10 09:40:08;;;;;;;;;4.75;4.25;;;;;7.01;66.88;101621.03;5022751;28;45696;-52
2023/01/10 09:42:50;;;;;;;;;9.00;6.00;;;;;7.06;66.97;101621.13;5022181;28;45399;-53
2023/01/10 09:45:18;;;;;;;;;11.50;6.50;;;;;7.09;66.40;101622.00;5022221;28;45350;-53
2023/01/10 09:47:53;;;;;;;;;5.50;5.00;;;;;7.10;66.72;101609.84;5022734;28;45347;-52
2023/01/10 09:50:35;;;;;;;;;5.00;4.75;;;;;7.11;66.90;101615.09;5022377;28;45259;-52
2023/01/10 09:53:03;;;;;;;;;7.50;7.50;;;;;7.07;66.94;101613.28;5022377;28;45387;-53
2023/01/10 09:55:35;;;;;;;;;6.75;5.00;;;;;7.10;67.05;101607.22;5022258;28;45356;-50
2023/01/10 09:58:06;;;;;;;;;6.50;5.50;;;;;7.11;67.20;101602.00;5022291;28;45297;-51
2023/01/10 10:00:40;;;;;;;;;5.75;4.75;;;;;7.14;67.11;101604.69;5021672;28;45229;-53
2023/01/10 10:03:18;;;;;;;;;6.25;5.25;;;;;7.14;67.18;101609.91;5021879;28;46290;-50
2023/01/10 10:05:43;;;;;;;;;5.00;3.50;;;;;7.12;67.11;101603.78;5022277;28;45361;-52
2023/01/10 10:08:16;;;;;;;;;7.75;4.00;;;;;7.14;67.24;101603.78;5022355;28;45361;-52
2023/01/10 10:11:00;;;;;;;;;6.50;6.50;;;;;7.18;67.09;101607.31;5022043;28;45387;-51
2023/01/10 10:13:54;;;;;;;;;10.00;8.25;;;;;7.20;67.50;101600.41;5021898;28;45343;-51
2023/01/10 10:16:38;;;;;;;;;4.75;2.50;;;;;7.21;67.43;101595.19;5021224;28;45346;-53
2023/01/10 10:19:09;;;;;;;;;10.00;8.50;;;;;7.23;67.55;101598.69;5022196;28;45249;-53
2023/01/10 10:21:52;;;;;;;;;7.25;5.75;;;;;7.26;67.58;101608.31;5020544;28;45429;-52
2023/01/10 10:24:20;;;;;;;;;7.50;6.00;;;;;7.27;67.45;101596.97;5021675;28;45299;-51
2023/01/10 10:27:20;;;;;;;;;9.50;5.00;;;;;7.30;67.58;101604.88;5022012;28;45262;-54
2023/01/10 10:30:23;;;;;;;;;9.75;6.25;;;;;7.35;67.37;101599.72;5021567;28;45258;-53
2023/01/10 10:33:07;;;;;;;;;6.75;3.00;;;;;7.30;67.51;101592.66;5021748;28;45174;-53
2023/01/10 10:35:40;;;;;;;;;11.25;7.00;;;;;7.30;67.52;101587.44;5021738;28;45245;-55
2023/01/10 10:38:18;;;;;;;;;8.25;5.25;;;;;7.29;67.62;101572.59;5021859;28;45403;-53
2023/01/10 10:40:47;;;;;;;;;6.25;3.25;;;;;7.30;67.59;101561.28;5021776;28;45424;-50
2023/01/10 10:43:23;;;;;;;;;3.00;2.25;;;;;7.34;67.49;101564.81;5020934;28;45229;-51
2023/01/10 10:45:56;;;;;;;;;7.50;4.00;;;;;7.38;68.01;101561.38;5021187;28;46372;-49
2023/01/10 10:48:33;;;;;;;;;7.25;3.75;;;;;7.39;67.91;101550.06;5021542;28;45206;-53
2023/01/10 10:51:11;;;;;;;;;9.50;8.25;;;;;7.38;68.03;101540.47;5021450;28;45332;-53
2023/01/10 10:53:36;;;;;;;;;10.25;7.75;;;;;7.39;67.93;101530.91;5021411;28;45410;-51
2023/01/10 10:56:05;;;;;;;;;6.00;5.25;;;;;7.41;68.00;101527.44;5021439;28;45424;-52
2023/01/10 10:58:31;;;;;;;;;3.75;3.00;;;;;7.40;68.41;101523.06;5021441;28;45262;-50
2023/01/10 11:00:59;;;;;;;;;6.25;6.00;;;;;7.45;67.92;101528.34;5021306;28;45316;-49
2023/01/10 11:03:48;;;;;;;;;9.50;5.00;;;;;7.48;68.17;101524.03;5021075;28;45546;-52
2023/01/10 11:06:16;;;;;;;;;6.00;5.75;;;;;7.45;67.88;101515.28;5021374;28;45358;-53
2023/01/10 11:08:44;;;;;;;;;8.00;7.50;;;;;7.45;67.96;101517.91;5020997;28;45316;-49
2023/01/10 11:11:20;;;;;;;;;7.00;5.25;;;;;7.46;67.78;101517.03;5020249;28;45540;-53
2023/01/10 11:13:52;;;;;;;;;4.50;4.50;;;;;7.47;68.04;101518.78;5021100;28;45327;-53
2023/01/10 11:16:25;;;;;;;;;10.25;4.75;;;;;7.49;67.94;101509.22;5020616;28;46074;-50
2023/01/10 11:19:18;;;;;;;;;8.75;3.50;;;;;7.48;68.38;101515.31;5021033;28;45254;-52
2023/01/10 11:21:59;;;;;;;;;4.00;3.00;;;;;7.49;68.36;101506.59;5021040;28;45233;-52
2023/01/10 11:24:30;;;;;;;;;10.25;4.75;;;;;7.48;68.49;101505.72;5020713;28;45465;-51
2023/01/10 11:26:58;;;;;;;;;6.00;4.50;;;;;7.49;68.23;101489.16;5020737;28;46443;-51
2023/01/10 11:29:38;;;;;;;;;8.75;4.25;;;;;7.46;68.24;101478.69;5020700;28;45343;-50
2023/01/10 11:32:13;;;;;;;;;3.50;3.50;;;;;7.46;68.49;101476.06;5020777;28;45228;-50
2023/01/10 11:34:40;;;;;;;;;4.00;3.75;;;;;7.47;68.27;101474.31;5020809;28;45187;-51
2023/01/10 11:37:30;;;;;;;;;4.00;4.00;;;;;7.49;68.68;101459.53;5018925;28;47818;-51
2023/01/10 11:40:24;;;;;;;;;2.50;2.50;;;;;7.49;68.69;101460.38;5020803;28;45431;-50
2023/01/10 11:42:55;;;;;;;;;4.00;4.00;;;;;7.51;69.06;101459.53;5019255;28;45381;-52
2023/01/10 11:45:27;;;;;;;;;3.75;3.50;;;;;7.56;69.16;101449.97;5019002;28;45425;-56
2023/01/10 11:48:07;;;;;;;;;6.75;3.50;;;;;7.54;68.96;101449.13;5020611;28;46873;-49
2023/01/10 11:50:49;;;;;;;;;6.50;4.00;;;;;7.57;68.48;101441.28;5020342;28;45435;-52
2023/01/10 11:53:44;;;;;;;;;2.25;2.25;;;;;7.63;69.04;101446.56;5020692;28;45249;-52